createdAt,value
2023-01-29T00:02:26.180Z,21.45
2023-01-29T00:04:59.785Z,22.65
2023-01-29T00:07:33.221Z,23.98
2023-01-29T00:10:04.893Z,26.25
2023-01-29T00:12:36.642Z,21.40
2023-01-29T00:15:10.509Z,27.60
2023-01-29T00:17:41.974Z,25.68
2023-01-29T00:20:15.948Z,22.85
2023-01-29T00:22:47.697Z,27.40
2023-01-29T00:25:19.172Z,29.70
2023-01-29T00:27:50.573Z,21.77
2023-01-29T00:30:22.798Z,22.20
2023-01-29T00:32:54.347Z,23.38
2023-01-29T00:35:25.769Z,24.60
2023-01-29T00:37:57.987Z,28.52
2023-01-29T00:40:31.197Z,26.57
2023-01-29T00:43:33.766Z,21.50
2023-01-29T00:46:07.278Z,22.27
2023-01-29T00:48:38.775Z,24.85
2023-01-29T00:51:10.303Z,20.90
2023-01-29T00:53:41.706Z,24.92
2023-01-29T00:56:13.235Z,24.30
2023-01-29T00:58:45.170Z,27.05
2023-01-29T01:01:17.678Z,22.45
2023-01-29T01:03:49.113Z,27.32
2023-01-29T01:06:20.617Z,24.32
2023-01-29T01:09:09.502Z,20.08
2023-01-29T01:11:41.087Z,22.05
2023-01-29T01:14:12.443Z,29.30
2023-01-29T01:16:43.872Z,29.48
2023-01-29T01:19:15.856Z,22.95
2023-01-29T01:21:48.421Z,21.93
2023-01-29T01:24:20.224Z,22.35
2023-01-29T01:26:51.781Z,26.23
2023-01-29T01:29:23.466Z,27.13
2023-01-29T01:31:56.128Z,27.80
2023-01-29T01:34:27.646Z,25.43
2023-01-29T01:36:59.102Z,21.60
2023-01-29T01:39:31.476Z,22.77
2023-01-29T01:42:03.235Z,21.45
2023-01-29T01:44:54.691Z,22.65
2023-01-29T01:47:31.517Z,22.37
2023-01-29T01:50:08.742Z,28.32
2023-01-29T01:52:43.353Z,29.80
2023-01-29T01:55:18.212Z,25.95
2023-01-29T02:00:31.284Z,22.13
2023-01-29T02:03:22.064Z,30.90
2023-01-29T02:06:14.208Z,24.02
2023-01-29T02:09:07.995Z,28.80
2023-01-29T02:11:40.435Z,28.38
2023-01-29T02:14:12.164Z,28.35
2023-01-29T02:16:43.669Z,25.17
2023-01-29T02:19:18.505Z,28.32
2023-01-29T02:22:03.521Z,24.98
2023-01-29T02:24:49.977Z,24.67
2023-01-29T02:27:24.443Z,27.00
2023-01-29T02:30:00.167Z,31.68
2023-01-29T02:32:35.288Z,30.90
2023-01-29T02:35:29.557Z,26.23
2023-01-29T02:38:05.513Z,24.35
2023-01-29T02:40:40.727Z,29.52
2023-01-29T02:43:19.370Z,27.37
2023-01-29T02:45:53.992Z,27.58
2023-01-29T02:48:27.467Z,24.75
2023-01-29T02:51:01.852Z,25.52
2023-01-29T02:53:36.816Z,26.52
2023-01-29T02:56:13.325Z,23.80
2023-01-29T02:58:47.372Z,23.50
2023-01-29T03:01:21.777Z,20.90
2023-01-29T03:03:56.310Z,29.27
2023-01-29T03:06:31.391Z,26.52
2023-01-29T03:09:05.682Z,23.10
2023-01-29T03:11:40.269Z,30.75
2023-01-29T03:14:16.685Z,26.73
2023-01-29T03:16:51.145Z,30.72
2023-01-29T03:19:25.356Z,25.40
2023-01-29T03:22:00.393Z,24.95
2023-01-29T03:24:54.936Z,25.97
2023-01-29T03:27:47.299Z,21.30
2023-01-29T03:30:38.037Z,23.92
2023-01-29T03:33:12.202Z,26.55
2023-01-29T03:35:48.398Z,22.13
2023-01-29T03:38:20.957Z,21.15
2023-01-29T03:40:55.387Z,28.42
2023-01-29T03:43:32.905Z,22.50
2023-01-29T03:46:08.833Z,25.80
2023-01-29T03:48:43.203Z,30.43
2023-01-29T03:54:00.148Z,25.85
2023-01-29T03:56:42.738Z,28.47
2023-01-29T03:59:20.469Z,26.05
2023-01-29T04:01:54.967Z,31.27
2023-01-29T04:04:29.435Z,31.42
2023-01-29T04:07:03.995Z,27.07
2023-01-29T04:09:39.410Z,26.65
2023-01-29T04:12:12.774Z,31.20
2023-01-29T04:14:46.577Z,27.80
2023-01-29T04:17:21.016Z,30.77
2023-01-29T04:19:52.872Z,30.50
2023-01-29T04:22:27.309Z,39.30
2023-01-29T04:25:01.721Z,26.10
2023-01-29T04:27:36.091Z,27.77
2023-01-29T04:30:18.113Z,25.62
2023-01-29T04:32:57.648Z,26.45
2023-01-29T04:35:33.137Z,26.68
2023-01-29T04:38:09.819Z,30.00
2023-01-29T04:40:46.909Z,24.63
2023-01-29T04:43:23.059Z,27.75
2023-01-29T04:46:02.530Z,28.38
2023-01-29T04:48:36.970Z,26.57
2023-01-29T04:51:11.865Z,27.35
2023-01-29T04:53:46.641Z,26.45
2023-01-29T04:56:22.004Z,28.40
2023-01-29T04:58:57.094Z,25.15
2023-01-29T05:01:32.984Z,26.82
2023-01-29T05:04:07.460Z,30.97
2023-01-29T05:06:40.565Z,25.97
2023-01-29T05:09:13.479Z,21.05
2023-01-29T05:11:48.344Z,27.02
2023-01-29T05:14:21.835Z,27.55
2023-01-29T05:16:56.490Z,27.30
2023-01-29T05:19:27.867Z,24.50
2023-01-29T05:22:00.600Z,27.30
2023-01-29T05:24:32.163Z,26.82
2023-01-29T05:27:22.049Z,30.27
2023-01-29T05:29:53.544Z,32.10
2023-01-29T05:32:25.248Z,26.33
2023-01-29T05:34:56.708Z,26.77
2023-01-29T05:37:28.342Z,27.22
2023-01-29T05:40:00.730Z,29.48
2023-01-29T05:42:32.170Z,29.77
2023-01-29T05:45:03.671Z,30.12
2023-01-29T05:47:35.129Z,29.90
2023-01-29T05:50:08.111Z,31.73
2023-01-29T05:52:39.633Z,28.92
2023-01-29T05:55:12.297Z,27.45
2023-01-29T05:57:43.764Z,27.02
2023-01-29T06:00:18.217Z,27.85
2023-01-29T06:02:50.661Z,29.32
2023-01-29T06:05:22.170Z,29.23
2023-01-29T06:07:53.790Z,22.60
2023-01-29T06:10:25.370Z,24.12
2023-01-29T06:12:56.847Z,29.60
2023-01-29T06:15:28.495Z,24.63
2023-01-29T06:17:59.894Z,21.25
2023-01-29T06:20:31.389Z,26.27
2023-01-29T06:23:02.984Z,25.60
2023-01-29T06:25:34.711Z,23.52
2023-01-29T06:28:06.678Z,31.80
2023-01-29T06:30:38.319Z,20.70
2023-01-29T06:33:09.853Z,21.48
2023-01-29T06:35:41.373Z,26.23
2023-01-29T06:38:12.803Z,27.60
2023-01-29T06:40:44.697Z,24.98
2023-01-29T06:43:16.135Z,26.50
2023-01-29T06:45:52.309Z,27.22
2023-01-29T06:48:24.679Z,27.95
2023-01-29T06:50:56.115Z,21.48
2023-01-29T06:53:28.071Z,21.85
2023-01-29T06:55:59.834Z,23.40
2023-01-29T06:58:31.297Z,21.60
2023-01-29T07:01:06.730Z,22.37
2023-01-29T07:03:38.669Z,22.80
2023-01-29T07:06:11.734Z,27.10
2023-01-29T07:08:43.219Z,27.25
2023-01-29T07:11:15.088Z,24.80
2023-01-29T07:13:46.572Z,27.13
2023-01-29T07:16:19.397Z,25.75
2023-01-29T07:18:51.060Z,20.72
2023-01-29T07:21:26.663Z,24.27
2023-01-29T07:24:01.501Z,19.80
2023-01-29T07:26:37.031Z,26.52
2023-01-29T07:29:14.037Z,19.10
2023-01-29T07:31:47.791Z,19.00
2023-01-29T07:34:19.851Z,21.62
2023-01-29T07:37:02.938Z,24.05
2023-01-29T07:39:34.345Z,18.40
2023-01-29T07:42:06.153Z,23.52
2023-01-29T07:44:37.848Z,26.33
2023-01-29T07:47:09.478Z,23.98
2023-01-29T07:49:41.036Z,28.98
2023-01-29T07:52:12.469Z,30.25
2023-01-29T07:54:43.860Z,29.98
2023-01-29T07:57:15.296Z,24.70
2023-01-29T07:59:46.672Z,27.35
2023-01-29T08:02:18.652Z,29.37
2023-01-29T08:04:50.136Z,31.42
2023-01-29T08:07:21.605Z,32.67
2023-01-29T08:09:52.989Z,21.77
2023-01-29T08:12:24.639Z,21.05
2023-01-29T08:14:56.364Z,21.42
2023-01-29T08:17:28.028Z,23.22
2023-01-29T08:19:59.551Z,23.55
2023-01-29T08:22:31.087Z,24.43
2023-01-29T08:25:08.284Z,19.37
2023-01-29T08:27:35.998Z,22.93
2023-01-29T08:30:11.049Z,31.52
2023-01-29T08:32:42.746Z,22.48
2023-01-29T08:35:14.460Z,24.70
2023-01-29T08:37:45.765Z,19.57
2023-01-29T08:40:18.186Z,20.72
2023-01-29T08:42:49.902Z,20.85
2023-01-29T08:45:21.492Z,18.05
2023-01-29T08:47:54.078Z,19.37
2023-01-29T08:50:26.829Z,25.80
2023-01-29T08:53:01.354Z,24.55
2023-01-29T08:55:32.914Z,17.50
2023-01-29T08:58:05.935Z,22.77
2023-01-29T09:00:38.093Z,20.90
2023-01-29T09:03:10.288Z,26.55
2023-01-29T09:05:43.267Z,24.82
2023-01-29T09:08:17.732Z,24.72
2023-01-29T09:10:49.281Z,17.95
2023-01-29T09:13:20.761Z,28.83
2023-01-29T09:15:52.611Z,22.93
2023-01-29T09:21:35.905Z,26.77
2023-01-29T09:26:45.700Z,23.18
2023-01-29T09:31:53.705Z,22.00
2023-01-29T09:34:25.152Z,39.25
2023-01-29T09:36:56.570Z,31.82
2023-01-29T09:39:28.061Z,26.57
2023-01-29T09:42:02.844Z,26.17
2023-01-29T09:44:53.631Z,31.37
2023-01-29T09:47:30.840Z,26.95
2023-01-29T09:50:05.685Z,33.42
2023-01-29T09:52:40.361Z,24.57
2023-01-29T09:55:18.445Z,41.80
2023-01-29T09:57:52.755Z,29.92
2023-01-29T10:00:27.754Z,29.42
2023-01-29T10:03:10.505Z,25.12
2023-01-29T10:05:56.585Z,27.17
2023-01-29T10:09:14.545Z,22.85
2023-01-29T10:11:49.503Z,34.83
2023-01-29T10:14:24.587Z,32.03
2023-01-29T10:17:03.713Z,26.90
2023-01-29T10:20:01.443Z,28.77
2023-01-29T10:22:46.812Z,28.10
2023-01-29T10:25:21.514Z,32.28
2023-01-29T10:27:55.250Z,23.38
2023-01-29T10:30:38.810Z,25.50
2023-01-29T10:33:15.153Z,23.40
2023-01-29T10:35:50.250Z,25.00
2023-01-29T10:38:27.905Z,28.90
2023-01-29T10:41:03.626Z,22.87
2023-01-29T10:43:38.810Z,24.65
2023-01-29T10:46:16.282Z,23.45
2023-01-29T10:48:53.089Z,25.68
2023-01-29T10:51:42.015Z,32.35
2023-01-29T10:54:25.274Z,24.12
2023-01-29T10:57:03.959Z,30.32
2023-01-29T10:59:48.088Z,31.10
2023-01-29T11:02:22.668Z,33.80
2023-01-29T11:04:54.242Z,29.05
2023-01-29T11:07:30.036Z,26.27
2023-01-29T11:10:06.084Z,22.17
2023-01-29T11:12:38.825Z,28.73
2023-01-29T11:15:16.446Z,24.70
2023-01-29T11:18:04.759Z,27.62
2023-01-29T11:20:36.361Z,26.52
2023-01-29T11:23:07.825Z,24.65
2023-01-29T11:25:40.023Z,31.27
2023-01-29T11:28:12.674Z,23.62
2023-01-29T11:30:46.503Z,25.72
2023-01-29T11:33:23.656Z,26.02
2023-01-29T11:35:57.847Z,25.80
2023-01-29T11:38:30.752Z,24.50
2023-01-29T11:41:08.947Z,19.73
2023-01-29T11:43:40.433Z,24.20
2023-01-29T11:46:16.454Z,25.23
2023-01-29T11:48:52.004Z,26.15
2023-01-29T11:51:26.399Z,27.60
2023-01-29T11:54:00.273Z,23.32
2023-01-29T11:56:35.111Z,19.60
2023-01-29T11:59:08.209Z,25.65
2023-01-29T12:01:42.772Z,25.92
2023-01-29T12:04:19.187Z,22.58
2023-01-29T12:06:53.074Z,20.95
2023-01-29T12:09:28.290Z,23.10
2023-01-29T12:12:11.169Z,23.27
2023-01-29T12:14:42.641Z,24.05
2023-01-29T12:17:17.707Z,24.87
2023-01-29T12:19:52.205Z,25.70
2023-01-29T12:22:26.761Z,25.43
2023-01-29T12:25:01.223Z,40.88
2023-01-29T12:27:36.258Z,25.10
2023-01-29T12:30:11.825Z,18.52
2023-01-29T12:32:47.516Z,21.87
2023-01-29T12:35:22.419Z,20.30
2023-01-29T12:37:58.387Z,19.65
2023-01-29T12:40:33.319Z,28.65
2023-01-29T12:43:07.767Z,21.15
2023-01-29T12:45:40.644Z,19.27
2023-01-29T12:48:15.270Z,23.85
2023-01-29T12:50:48.136Z,20.08
2023-01-29T12:53:26.664Z,18.57
2023-01-29T12:56:00.815Z,21.42
2023-01-29T12:58:35.381Z,20.25
2023-01-29T13:01:10.872Z,20.80
2023-01-29T13:03:48.948Z,19.23
2023-01-29T13:06:23.604Z,25.12
2023-01-29T13:08:57.723Z,24.07
2023-01-29T13:11:32.035Z,25.40
2023-01-29T13:14:06.589Z,20.37
2023-01-29T13:16:41.261Z,21.73
2023-01-29T13:19:21.785Z,22.22
2023-01-29T13:21:54.932Z,24.18
2023-01-29T13:24:29.497Z,22.77
2023-01-29T13:27:01.888Z,19.00
2023-01-29T13:29:33.610Z,24.92
2023-01-29T13:32:06.858Z,36.88
2023-01-29T13:34:40.851Z,23.77
2023-01-29T13:37:15.176Z,20.02
2023-01-29T13:39:51.825Z,21.25
2023-01-29T13:42:25.265Z,22.15
2023-01-29T13:44:58.616Z,19.77
2023-01-29T13:47:32.377Z,24.30
2023-01-29T13:50:07.779Z,22.95
2023-01-29T13:52:44.719Z,24.80
2023-01-29T13:55:28.529Z,27.50
2023-01-29T13:58:01.363Z,22.95
2023-01-29T14:01:03.725Z,24.43
2023-01-29T14:04:03.871Z,24.27
2023-01-29T14:06:41.680Z,22.77
2023-01-29T14:09:52.712Z,20.50
2023-01-29T14:12:42.702Z,22.75
2023-01-29T14:15:34.547Z,21.42
2023-01-29T14:18:16.378Z,20.37
2023-01-29T14:20:56.853Z,24.20
2023-01-29T14:23:44.272Z,23.90
2023-01-29T14:26:25.263Z,24.12
2023-01-29T14:29:04.154Z,22.82
2023-01-29T14:31:43.216Z,20.50
2023-01-29T14:34:26.008Z,17.92
2023-01-29T14:37:00.397Z,24.02
2023-01-29T14:39:36.432Z,23.30
2023-01-29T14:42:17.575Z,22.55
2023-01-29T14:45:24.130Z,20.80
2023-01-29T14:47:58.218Z,20.72
2023-01-29T14:50:49.162Z,19.92
2023-01-29T14:53:28.351Z,27.82
2023-01-29T14:56:04.005Z,22.42
2023-01-29T14:58:45.199Z,24.80
2023-01-29T15:03:52.929Z,22.07
2023-01-29T15:06:30.631Z,26.23
2023-01-29T15:09:07.610Z,22.37
2023-01-29T15:11:43.828Z,23.25
2023-01-29T15:14:32.370Z,26.80
2023-01-29T15:17:09.299Z,25.77
2023-01-29T15:19:44.924Z,22.70
2023-01-29T15:22:18.254Z,23.50
2023-01-29T15:25:04.131Z,21.75
2023-01-29T15:27:36.449Z,25.17
2023-01-29T15:30:14.168Z,26.95
2023-01-29T15:32:46.118Z,24.87
2023-01-29T15:35:27.280Z,23.45
2023-01-29T15:40:37.418Z,21.50
2023-01-29T15:43:23.099Z,30.23
2023-01-29T15:45:57.400Z,24.35
2023-01-29T15:48:33.088Z,24.27
2023-01-29T15:51:07.335Z,22.80
2023-01-29T15:53:41.868Z,22.07
2023-01-29T15:56:15.861Z,25.55
2023-01-29T15:58:49.455Z,23.90
2023-01-29T16:01:21.152Z,27.35
2023-01-29T16:03:53.031Z,27.50
2023-01-29T16:06:26.391Z,24.05
2023-01-29T16:08:59.968Z,27.95
2023-01-29T16:11:32.799Z,23.75
2023-01-29T16:14:06.491Z,32.38
2023-01-29T16:16:38.045Z,25.88
2023-01-29T16:19:22.348Z,26.25
2023-01-29T16:21:58.099Z,29.40
2023-01-29T16:24:31.440Z,27.93
2023-01-29T16:27:05.751Z,31.23
2023-01-29T16:29:38.904Z,27.62
2023-01-29T16:32:13.240Z,31.95
2023-01-29T16:34:48.075Z,27.35
2023-01-29T16:37:24.175Z,26.62
2023-01-29T16:39:55.728Z,35.28
2023-01-29T16:42:35.434Z,52.05
2023-01-29T16:45:10.725Z,31.35
2023-01-29T16:47:43.289Z,29.55
2023-01-29T16:50:30.982Z,29.55
2023-01-29T16:53:07.076Z,30.32
2023-01-29T16:55:44.917Z,29.95
2023-01-29T16:58:19.610Z,31.02
2023-01-29T17:00:54.442Z,32.85
2023-01-29T17:03:28.752Z,41.65
2023-01-29T17:06:02.298Z,28.47
2023-01-29T17:08:35.658Z,36.13
2023-01-29T17:11:09.666Z,32.63
2023-01-29T17:13:43.322Z,36.75
2023-01-29T17:16:37.456Z,33.28
2023-01-29T17:19:18.205Z,30.62
2023-01-29T17:21:49.881Z,36.40
2023-01-29T17:24:21.262Z,33.78
2023-01-29T17:26:52.904Z,30.85
2023-01-29T17:29:27.319Z,36.77
2023-01-29T17:32:00.252Z,41.28
2023-01-29T17:34:31.861Z,40.03
2023-01-29T17:37:03.664Z,34.30
2023-01-29T17:39:38.527Z,32.88
2023-01-29T17:42:15.347Z,38.00
2023-01-29T17:44:46.774Z,35.85
2023-01-29T17:47:18.297Z,37.10
2023-01-29T17:49:52.809Z,33.63
2023-01-29T17:52:24.274Z,32.25
2023-01-29T17:54:55.799Z,30.97
2023-01-29T17:57:27.252Z,32.15
2023-01-29T17:59:58.680Z,29.45
2023-01-29T18:05:17.377Z,27.52
2023-01-29T18:07:51.705Z,30.68
2023-01-29T18:10:23.740Z,28.27
2023-01-29T18:12:55.300Z,24.52
2023-01-29T18:15:26.846Z,22.77
2023-01-29T18:18:00.340Z,27.98
2023-01-29T18:20:34.417Z,26.30
2023-01-29T18:23:06.841Z,28.67
2023-01-29T18:25:38.640Z,29.02
2023-01-29T18:28:13.273Z,29.37
2023-01-29T18:30:46.914Z,28.77
2023-01-29T18:33:19.087Z,25.05
2023-01-29T18:35:50.774Z,24.82
2023-01-29T18:38:22.453Z,29.45
2023-01-29T18:40:53.989Z,24.50
2023-01-29T18:43:26.304Z,32.42
2023-01-29T18:46:00.334Z,30.57
2023-01-29T18:48:31.994Z,37.15
2023-01-29T18:51:03.742Z,34.75
2023-01-29T18:53:35.166Z,33.02
2023-01-29T18:56:08.601Z,33.95
2023-01-29T18:58:40.528Z,28.17
2023-01-29T19:01:12.748Z,32.93
2023-01-29T19:03:44.965Z,32.08
2023-01-29T19:06:16.584Z,35.35
2023-01-29T19:08:49.141Z,29.05
2023-01-29T19:11:21.445Z,30.97
2023-01-29T19:13:53.362Z,33.28
2023-01-29T19:16:25.095Z,38.50
2023-01-29T19:18:58.579Z,34.15
2023-01-29T19:21:30.410Z,32.25
2023-01-29T19:24:02.001Z,32.48
2023-01-29T19:26:35.175Z,36.25
2023-01-29T19:29:09.304Z,31.35
2023-01-29T19:31:43.252Z,38.33
2023-01-29T19:34:15.588Z,41.30
2023-01-29T19:36:47.395Z,43.85
2023-01-29T19:39:19.359Z,41.90
2023-01-29T19:41:52.223Z,35.63
2023-01-29T19:44:25.373Z,29.30
2023-01-29T19:47:00.134Z,39.48
2023-01-29T19:49:34.106Z,35.38
2023-01-29T19:52:09.883Z,42.62
2023-01-29T19:54:45.183Z,31.17
2023-01-29T19:57:18.452Z,36.95
2023-01-29T19:59:52.232Z,36.13
2023-01-29T20:02:25.968Z,37.80
2023-01-29T20:04:58.588Z,31.00
2023-01-29T20:07:31.048Z,37.17
2023-01-29T20:10:05.089Z,40.90
2023-01-29T20:12:38.178Z,38.60
2023-01-29T20:15:12.787Z,34.38
2023-01-29T20:17:45.609Z,35.52
2023-01-29T20:20:19.607Z,42.53
2023-01-29T20:22:52.628Z,40.23
2023-01-29T20:25:27.121Z,43.83
2023-01-29T20:27:59.028Z,34.88
2023-01-29T20:30:30.875Z,31.05
2023-01-29T20:33:04.605Z,31.62
2023-01-29T20:35:38.465Z,32.42
2023-01-29T20:38:10.051Z,33.67
2023-01-29T20:40:47.561Z,27.20
2023-01-29T20:43:20.372Z,36.60
2023-01-29T20:45:52.090Z,28.38
2023-01-29T20:48:24.461Z,26.15
2023-01-29T20:50:56.318Z,27.82
2023-01-29T20:53:28.801Z,27.90
2023-01-29T20:56:04.273Z,26.17
2023-01-29T20:58:37.805Z,29.25
2023-01-29T21:01:11.497Z,34.53
2023-01-29T21:03:44.128Z,31.65
2023-01-29T21:06:24.914Z,30.62
2023-01-29T21:08:56.457Z,27.93
2023-01-29T21:11:28.587Z,26.37
2023-01-29T21:14:01.772Z,27.07
2023-01-29T21:16:33.325Z,27.62
2023-01-29T21:19:04.744Z,30.37
2023-01-29T21:21:36.194Z,30.00
2023-01-29T21:24:09.297Z,29.90
2023-01-29T21:26:40.748Z,30.72
2023-01-29T21:29:13.301Z,31.15
2023-01-29T21:31:45.057Z,31.02
2023-01-29T21:34:16.533Z,31.20
2023-01-29T21:36:48.132Z,28.17
2023-01-29T21:39:20.926Z,26.80
2023-01-29T21:42:10.922Z,25.70
2023-01-29T21:44:42.428Z,29.18
2023-01-29T21:47:13.917Z,29.80
2023-01-29T21:49:46.184Z,31.27
2023-01-29T21:52:17.621Z,29.95
2023-01-29T21:54:49.495Z,26.93
2023-01-29T21:57:20.930Z,26.57
2023-01-29T21:59:53.285Z,24.57
2023-01-29T22:02:26.616Z,24.12
2023-01-29T22:05:16.544Z,27.60
2023-01-29T22:07:33.214Z,29.77
2023-01-29T22:10:05.032Z,30.92
2023-01-29T22:12:36.597Z,30.95
2023-01-29T22:15:10.081Z,26.80
2023-01-29T22:17:42.143Z,26.02
2023-01-29T22:20:16.086Z,29.37
2023-01-29T22:22:48.069Z,30.45
2023-01-29T22:25:20.254Z,29.27
2023-01-29T22:27:51.569Z,30.30
2023-01-29T22:32:54.725Z,33.67
2023-01-29T22:35:26.288Z,32.58
2023-01-29T22:37:57.737Z,29.02
2023-01-29T22:40:29.254Z,31.70
2023-01-29T22:43:00.767Z,33.40
2023-01-29T22:45:32.698Z,38.78
2023-01-29T22:48:08.192Z,37.53
2023-01-29T22:50:39.909Z,35.13
2023-01-29T22:53:11.501Z,37.53
2023-01-29T22:55:43.122Z,34.95
2023-01-29T22:58:14.545Z,35.73
2023-01-29T23:00:45.897Z,33.95
2023-01-29T23:03:17.491Z,42.30
2023-01-29T23:05:48.865Z,43.48
2023-01-29T23:08:20.341Z,35.48
2023-01-29T23:10:52.076Z,36.90
2023-01-29T23:13:24.020Z,31.55
2023-01-29T23:16:00.798Z,37.90
2023-01-29T23:18:32.530Z,35.92
2023-01-29T23:21:03.956Z,38.00
2023-01-29T23:23:37.138Z,37.93
2023-01-29T23:26:29.331Z,31.15
2023-01-29T23:29:01.162Z,30.82
2023-01-29T23:31:32.548Z,30.52
2023-01-29T23:34:04.397Z,32.40
2023-01-29T23:36:36.162Z,34.70
2023-01-29T23:39:08.080Z,35.90
2023-01-29T23:41:44.142Z,36.33
2023-01-29T23:44:15.849Z,35.52
2023-01-29T23:46:47.239Z,31.97
2023-01-29T23:49:19.581Z,31.87
2023-01-29T23:51:51.795Z,35.85
2023-01-29T23:54:23.209Z,27.98
2023-01-29T23:56:54.607Z,32.93
2023-01-29T23:59:31.201Z,32.95
